Date,TemperatureHighF,TemperatureAvgF,TemperatureLowF,DewpointHighF,DewpointAvgF,DewpointLowF,HumidityHigh,HumidityAvg,HumidityLow,PressureMaxIn,PressureMinIn,WindSpeedMaxMPH,WindSpeedAvgMPH,GustSpeedMaxMPH,PrecipitationSumIn
2013-2-1,80,63,53,38,34,30,53,35,21,30.37,30.29,6,2,6,0.00
2013-2-2,78,66,58,46,36,30,52,34,21,30.41,30.30,4,1,4,0.00
2013-2-3,74,68,61,46,43,35,55,41,32,30.31,30.16,8,2,8,0.00
2013-2-4,83,71,55,39,32,24,51,25,17,30.23,30.11,12,3,12,0.00
2013-2-5,81,66,55,39,32,23,37,29,19,30.18,30.06,14,4,14,0.00
2013-2-6,73,62,52,44,40,32,63,43,24,30.19,30.04,12,2,12,0.00
2013-2-7,78,61,51,45,28,19,62,30,17,30.24,30.07,8,3,8,0.00
2013-2-8,54,45,43,41,36,32,91,70,51,30.09,29.99,23,9,23,0.02
2013-2-9,55,50,40,34,31,28,71,49,41,30.19,30.01,22,7,22,0.00
2013-2-10,58,49,41,32,30,28,63,49,35,30.20,30.11,14,3,14,0.00
2013-2-11,62,54,45,34,20,11,61,27,22,30.36,30.17,23,7,23,0.00
2013-2-12,66,56,42,24,19,9,30,23,20,30.47,30.35,16,5,16,0.00
2013-2-13,76,58,46,31,21,14,35,24,16,30.40,30.25,8,3,8,0.00
2013-2-14,74,65,53,30,24,22,30,21,16,30.36,30.25,14,3,14,0.00
2013-2-15,81,66,54,30,25,22,31,22,15,30.44,30.35,8,4,8,0.00
2013-2-16,81,72,60,30,27,22,23,19,15,30.41,30.17,9,2,9,0.00
2013-2-17,75,64,54,33,25,16,34,23,16,30.13,30.00,14,5,14,0.00
2013-2-18,77,63,53,40,32,20,47,33,17,30.17,30.04,13,4,13,0.00
2013-2-19,57,52,47,42,38,33,74,59,45,30.05,29.86,31,13,31,0.00
2013-2-20,53,45,39,40,34,29,91,66,47,29.94,29.79,18,7,18,0.14
2013-2-21,49,47,45,17,16,16,32,29,27,30.22,30.21,4,2,4,0.00
2013-2-22,72,59,43,26,22,16,38,25,17,30.32,30.23,7,2,7,0.00
2013-2-23,70,58,48,36,30,16,53,36,21,30.30,29.97,30,7,30,0.04
2013-2-24,66,56,48,24,18,14,26,23,20,30.35,30.14,25,11,25,0.08
2013-2-25,71,62,45,24,21,10,26,20,17,30.38,30.19,11,2,11,0.00
2013-2-26,74,63,45,29,22,17,35,22,16,30.30,30.15,21,6,21,0.00
2013-2-27,54,53,51,16,16,15,24,22,22,30.37,30.35,12,7,12,0.00
2013-2-28,63,62,60,23,23,22,23,22,21,30.49,30.48,5,3,5,0.00